Karlsruhe Baden-Baden Airport EDSB

Flugplatz Daten

Name: Karlsruhe Baden-Baden Airport

Ident: EDSB

Lat: 48,77939987

Long: 8,080499649

Platzhöhe: 408 ft

IataCode: FKB

City: Baden-Baden

Metar

2022/08/10 19:20
EDSB 101920Z 03006KT CAVOK 24/06 Q1020

Taf

2022/08/10 18:27
TAF EDSB 101700Z 1018/1118 03010KT CAVOK
BECMG 1019/1021 03004KT
BECMG 1105/1107 02010KT
Gewünschte Webcam nicht vorhanden? Dann fügen Sie eine hinzu. Sie wird dann so schnell wie möglich freigeschaltet
Url: Title: